Terminal Aerodrome Forecast
Issued by NWS

Home | Current Version | Previous Version | Text Only | Print | Product List | Glossary On
Versions: 1 2 3 4 5 6 7 8 9 10 11 12 13 14 15 16 17 18 19 20 21 22 23 24 25 26 27 28 29 30 31 32 33 34 35 36 37 38 39 40
000
FTUS45 KBOU 291616 AAA
TAFAPA
TAF AMD
KAPA 291616Z 2916/3012 05006KT P6SM SCT035 BKN050
     FM291700 10006KT P6SM SCT040 BKN070
     FM292200 13010KT P6SM SCT040 SCT070
     FM300100 16010KT P6SM FEW080 BKN200
     FM300600 19010KT P6SM SCT080 BKN140=

USA.gov is the U.S. government's official web portal to all federal, state and local government web resources and services.